Time;durP1;ratioP1;P1;durP2;ratioP2;P2;SDS_P1;SDS_P2;PMS_P1;PMS_P2;Temp;Humidity;BMP_temperature;BMP_pressure;BME280_temperature;BME280_humidity;BME280_pressure;Samples;Min_cycle;Max_cycle;Signal;HPM_P1;HPM_P2
2023/09/15 00:00:32;;;;;;;27.95;23.35;;;;;;;12.59;100.00;101910.31;5012761;28;20029;-64
2023/09/15 00:02:58;;;;;;;28.83;23.05;;;;;;;12.53;100.00;101909.56;5012858;28;20507;-63
2023/09/15 00:05:26;;;;;;;27.08;22.38;;;;;;;12.52;100.00;101901.50;5012726;28;20558;-64
2023/09/15 00:07:52;;;;;;;26.42;22.02;;;;;;;12.51;100.00;101900.69;5012751;28;20097;-64
2023/09/15 00:10:19;;;;;;;28.00;21.98;;;;;;;12.50;100.00;101896.25;5012588;28;20042;-64
2023/09/15 00:12:45;;;;;;;27.45;23.65;;;;;;;12.47;100.00;101894.06;5012940;28;20057;-64
2023/09/15 00:15:11;;;;;;;27.83;21.83;;;;;;;12.46;100.00;101893.25;5012620;28;20026;-64
2023/09/15 00:17:40;;;;;;;28.52;23.00;;;;;;;12.43;100.00;101893.81;5012478;28;20053;-64
2023/09/15 00:20:14;;;;;;;27.45;21.92;;;;;;;12.36;100.00;101890.56;5012586;28;20430;-64
2023/09/15 00:23:05;;;;;;;28.30;23.60;;;;;;;12.40;100.00;101894.44;5012333;28;20400;-64
2023/09/15 00:25:32;;;;;;;28.00;23.27;;;;;;;12.33;100.00;101891.13;5010265;28;20038;-64
2023/09/15 00:28:00;;;;;;;27.92;22.50;;;;;;;12.28;100.00;101885.66;5012422;28;20025;-64
2023/09/15 00:30:27;;;;;;;26.17;22.52;;;;;;;12.27;100.00;101881.22;5012360;28;20140;-64
2023/09/15 00:32:53;;;;;;;27.23;22.88;;;;;;;12.26;100.00;101885.97;5012352;28;20040;-64
2023/09/15 00:35:21;;;;;;;28.40;22.88;;;;;;;12.23;100.00;101880.97;5012272;28;20030;-64
2023/09/15 00:37:47;;;;;;;26.73;22.98;;;;;;;12.23;100.00;101877.41;5012470;28;20029;-64
2023/09/15 00:40:17;;;;;;;28.45;23.15;;;;;;;12.20;100.00;101876.00;5012256;28;20028;-64
2023/09/15 00:42:47;;;;;;;28.20;23.25;;;;;;;12.20;100.00;101883.53;5012248;28;20038;-64
2023/09/15 00:45:19;;;;;;;26.83;23.63;;;;;;;12.14;100.00;101879.97;5011872;28;20050;-64
2023/09/15 00:47:48;;;;;;;26.75;22.80;;;;;;;12.10;100.00;101870.56;5012023;28;20034;-64
2023/09/15 00:50:16;;;;;;;28.08;21.80;;;;;;;12.06;100.00;101877.81;5012407;28;20034;-64
2023/09/15 00:52:45;;;;;;;27.95;23.08;;;;;;;12.02;100.00;101872.84;5011882;28;20037;-64
2023/09/15 00:55:12;;;;;;;26.85;23.52;;;;;;;12.04;100.00;101878.13;5011921;28;20046;-64
2023/09/15 00:57:37;;;;;;;27.65;22.40;;;;;;;11.99;100.00;101879.00;5011898;28;20029;-63
2023/09/15 01:00:11;;;;;;;29.10;23.58;;;;;;;11.90;100.00;101866.00;5011662;28;20026;-63
2023/09/15 01:02:37;;;;;;;27.88;23.45;;;;;;;11.89;100.00;101873.50;5011909;28;20485;-63
2023/09/15 01:05:03;;;;;;;27.40;22.75;;;;;;;11.85;100.00;101867.69;5011245;28;20037;-63
2023/09/15 01:07:29;;;;;;;26.45;23.10;;;;;;;11.83;100.00;101863.53;5011652;28;20113;-63
2023/09/15 01:09:54;;;;;;;26.83;22.40;;;;;;;11.83;100.00;101864.41;5011657;28;20499;-63
2023/09/15 01:12:20;;;;;;;27.50;22.90;;;;;;;11.79;100.00;101862.50;5011769;28;20106;-63
2023/09/15 01:14:45;;;;;;;29.70;23.60;;;;;;;11.76;100.00;101861.09;5011590;28;20056;-63
2023/09/15 01:17:23;;;;;;;27.33;23.50;;;;;;;11.72;100.00;101854.50;5011630;28;20149;-63
2023/09/15 01:20:09;;;;;;;28.88;23.80;;;;;;;11.70;100.00;101853.94;5011514;28;20038;-63
2023/09/15 01:22:55;;;;;;;27.05;22.65;;;;;;;11.68;100.00;101854.25;5011376;28;20418;-63
2023/09/15 01:25:51;;;;;;;28.20;23.20;;;;;;;11.67;100.00;101848.97;5011398;28;20101;-63
2023/09/15 01:28:52;;;;;;;28.50;22.55;;;;;;;11.65;100.00;101852.03;5011482;28;20029;-63
2023/09/15 01:31:17;;;;;;;25.75;21.90;;;;;;;11.59;100.00;101849.59;4970253;28;20142;-63
2023/09/15 01:33:43;;;;;;;26.55;22.85;;;;;;;11.55;100.00;101849.34;5002607;28;20038;-63
2023/09/15 01:36:09;;;;;;;26.67;22.52;;;;;;;11.52;100.00;101838.84;5011513;28;20076;-63
2023/09/15 01:38:34;;;;;;;27.98;22.30;;;;;;;11.50;100.00;101847.44;5011311;28;20489;-63
2023/09/15 01:40:59;;;;;;;27.15;23.10;;;;;;;11.46;100.00;101845.53;5011252;28;20454;-63
2023/09/15 01:43:25;;;;;;;27.52;21.95;;;;;;;11.43;100.00;101837.81;5011211;28;20117;-63
2023/09/15 01:45:50;;;;;;;26.65;22.85;;;;;;;11.39;100.00;101832.84;5010948;28;20045;-63
2023/09/15 01:48:16;;;;;;;26.63;22.85;;;;;;;11.38;100.00;101833.94;5011164;28;20029;-63
2023/09/15 01:50:42;;;;;;;27.60;22.85;;;;;;;11.36;100.00;101832.59;5011096;28;20034;-63
2023/09/15 01:53:07;;;;;;;27.08;22.55;;;;;;;11.33;100.00;101839.53;5011084;28;20038;-63
2023/09/15 01:55:34;;;;;;;28.85;22.27;;;;;;;11.32;100.00;101834.25;5011074;28;20065;-63
2023/09/15 01:57:59;;;;;;;27.98;23.10;;;;;;;11.29;100.00;101832.09;5011010;28;20030;-63
2023/09/15 02:00:32;;;;;;;28.02;23.27;;;;;;;11.26;100.00;101827.94;5010984;28;20056;-63
2023/09/15 02:02:57;;;;;;;27.98;22.60;;;;;;;11.22;100.00;101833.22;5011592;28;20026;-63
2023/09/15 02:05:24;;;;;;;26.75;23.40;;;;;;;11.22;100.00;101829.63;5011111;28;20037;-63
2023/09/15 02:07:49;;;;;;;28.60;23.52;;;;;;;11.16;100.00;101834.38;5011184;28;20442;-63
2023/09/15 02:10:15;;;;;;;28.73;21.80;;;;;;;11.16;100.00;101828.00;5010871;28;20033;-64
2023/09/15 02:12:40;;;;;;;28.27;22.98;;;;;;;11.10;100.00;101829.97;5010792;28;20037;-63
2023/09/15 02:15:06;;;;;;;28.48;22.92;;;;;;;11.11;100.00;101825.25;5010806;28;20026;-64
2023/09/15 02:17:31;;;;;;;28.63;22.02;;;;;;;11.07;100.00;101834.13;5014344;28;20374;-63
2023/09/15 02:19:56;;;;;;;27.10;22.33;;;;;;;11.05;100.00;101830.81;5014701;28;20048;-63
2023/09/15 02:22:22;;;;;;;26.50;22.52;;;;;;;11.03;100.00;101824.75;5014523;28;20026;-63
2023/09/15 02:24:47;;;;;;;27.73;22.40;;;;;;;11.03;100.00;101833.06;5014687;28;20048;-63
2023/09/15 02:27:12;;;;;;;27.45;22.20;;;;;;;11.01;100.00;101835.28;5014789;28;20097;-63
2023/09/15 02:29:38;;;;;;;28.42;22.63;;;;;;;10.99;100.00;101834.72;5013079;28;20026;-63
2023/09/15 02:32:04;;;;;;;27.70;22.13;;;;;;;10.97;100.00;101827.84;5014461;28;20436;-63
2023/09/15 02:34:30;;;;;;;28.08;21.85;;;;;;;10.93;100.00;101820.09;5014237;28;20056;-63
2023/09/15 02:36:55;;;;;;;27.55;21.75;;;;;;;10.89;100.00;101816.25;5014625;28;20104;-63
2023/09/15 02:39:21;;;;;;;28.65;22.23;;;;;;;10.90;100.00;101823.44;5014690;28;20423;-63
2023/09/15 02:41:46;;;;;;;28.10;22.13;;;;;;;10.87;100.00;101817.63;5014363;28;20033;-63
2023/09/15 02:44:11;;;;;;;27.38;22.83;;;;;;;10.85;100.00;101806.84;5014174;28;20088;-63
2023/09/15 02:46:37;;;;;;;27.75;22.08;;;;;;;10.80;100.00;101814.34;5014361;28;20045;-63
2023/09/15 02:49:03;;;;;;;27.92;22.70;;;;;;;10.78;100.00;101811.88;5014342;28;20026;-63
2023/09/15 02:51:28;;;;;;;26.83;21.85;;;;;;;10.76;100.00;101803.84;5014222;28;20448;-63
2023/09/15 02:53:54;;;;;;;27.55;22.13;;;;;;;10.73;100.00;101814.63;5014136;28;20419;-63
2023/09/15 02:56:22;;;;;;;28.38;22.38;;;;;;;10.71;100.00;101814.13;5014036;28;20065;-63
2023/09/15 02:58:47;;;;;;;27.35;21.80;;;;;;;10.70;100.00;101809.69;5013892;28;20085;-63
2023/09/15 03:01:16;;;;;;;27.98;20.92;;;;;;;10.69;100.00;101816.34;5013752;28;20500;-63
2023/09/15 03:03:41;;;;;;;26.80;21.90;;;;;;;10.64;100.00;101805.28;5013974;28;20038;-63
2023/09/15 03:06:09;;;;;;;26.95;21.85;;;;;;;10.61;100.00;101813.03;5013640;28;20022;-63
2023/09/15 03:08:37;;;;;;;27.92;21.90;;;;;;;10.61;100.00;101807.50;5013891;28;20121;-63
2023/09/15 03:11:02;;;;;;;27.23;21.95;;;;;;;10.59;100.00;101801.44;5013799;28;20037;-63
2023/09/15 03:13:28;;;;;;;26.33;21.45;;;;;;;10.55;100.00;101803.09;5013720;28;20053;-63
2023/09/15 03:15:53;;;;;;;27.58;22.08;;;;;;;10.52;100.00;101800.06;5013605;28;20092;-63
2023/09/15 03:18:19;;;;;;;27.50;21.48;;;;;;;10.55;100.00;101803.09;5013484;28;20030;-63
2023/09/15 03:20:44;;;;;;;27.50;21.88;;;;;;;10.51;100.00;101798.41;5012104;28;20033;-63
2023/09/15 03:23:09;;;;;;;28.52;22.75;;;;;;;10.51;100.00;101796.47;5011932;28;20541;-63
2023/09/15 03:25:35;;;;;;;28.38;22.13;;;;;;;10.50;100.00;101797.59;5013376;28;20030;-63
2023/09/15 03:28:00;;;;;;;28.23;22.20;;;;;;;10.49;100.00;101801.47;5013052;28;20026;-63
2023/09/15 03:30:26;;;;;;;27.52;21.98;;;;;;;10.47;100.00;101798.16;5013630;28;20037;-63
2023/09/15 03:32:51;;;;;;;30.15;21.27;;;;;;;10.47;100.00;101789.03;5013364;28;20048;-63
2023/09/15 03:35:16;;;;;;;27.13;21.48;;;;;;;10.45;100.00;101787.38;5013461;28;20064;-63
2023/09/15 03:37:42;;;;;;;27.63;21.60;;;;;;;10.44;100.00;101790.41;5013243;28;20037;-64
2023/09/15 03:40:11;;;;;;;27.02;21.25;;;;;;;10.41;100.00;101789.03;5013037;28;20045;-63
2023/09/15 03:42:37;;;;;;;27.88;21.70;;;;;;;10.42;100.00;101787.94;5013023;28;20041;-64
2023/09/15 03:45:03;;;;;;;27.45;21.00;;;;;;;10.40;100.00;101789.31;5012633;28;20030;-63
2023/09/15 03:47:28;;;;;;;27.65;22.40;;;;;;;10.36;100.00;101780.72;5013277;28;20504;-64
2023/09/15 03:49:54;;;;;;;27.48;21.50;;;;;;;10.34;100.00;101790.44;5013067;28;20033;-64
2023/09/15 03:52:19;;;;;;;28.63;21.92;;;;;;;10.34;100.00;101787.66;5012898;28;20041;-64
2023/09/15 03:54:44;;;;;;;28.83;22.23;;;;;;;10.30;100.00;101781.84;5011558;28;20026;-64
2023/09/15 03:57:09;;;;;;;27.55;21.67;;;;;;;10.25;100.00;101781.88;5012912;28;20442;-64
2023/09/15 03:59:35;;;;;;;28.25;22.23;;;;;;;10.22;100.00;101777.75;5012691;28;20042;-64
2023/09/15 04:02:03;;;;;;;27.10;22.08;;;;;;;10.20;100.00;101782.72;5012852;28;20076;-64
2023/09/15 04:04:29;;;;;;;27.55;21.27;;;;;;;10.18;100.00;101784.91;5012952;28;20065;-64
2023/09/15 04:06:54;;;;;;;27.35;21.80;;;;;;;10.16;100.00;101778.84;5012744;28;20121;-64
2023/09/15 04:09:19;;;;;;;28.17;21.83;;;;;;;10.16;100.00;101781.59;5012908;28;20032;-64
2023/09/15 04:11:45;;;;;;;27.75;22.00;;;;;;;10.13;100.00;101787.72;5012679;28;20045;-64
2023/09/15 04:14:10;;;;;;;27.63;21.77;;;;;;;10.11;100.00;101776.91;5012430;28;20149;-64
2023/09/15 04:16:37;;;;;;;32.45;23.17;;;;;;;10.09;100.00;101781.06;5012584;28;20048;-64
2023/09/15 04:19:03;;;;;;;27.80;22.40;;;;;;;10.07;100.00;101777.75;5012574;28;20097;-63
2023/09/15 04:21:28;;;;;;;26.60;21.38;;;;;;;10.08;100.00;101782.19;5012349;28;20116;-64
2023/09/15 04:23:53;;;;;;;30.58;22.38;;;;;;;10.03;100.00;101771.97;5012414;28;20022;-63
2023/09/15 04:26:19;;;;;;;28.98;22.80;;;;;;;10.05;100.00;101775.28;5012295;28;20060;-63
2023/09/15 04:28:44;;;;;;;27.60;21.48;;;;;;;10.01;100.00;101773.34;5012180;28;20401;-63
2023/09/15 04:31:10;;;;;;;25.85;20.17;;;;;;;9.99;100.00;101771.69;5012375;28;20053;-63
2023/09/15 04:33:35;;;;;;;25.52;20.98;;;;;;;9.99;100.00;101777.22;5012133;28;20033;-63
2023/09/15 04:36:00;;;;;;;27.48;20.55;;;;;;;9.98;100.00;101777.50;5012085;28;20056;-64
2023/09/15 04:38:26;;;;;;;26.55;21.15;;;;;;;9.97;100.00;101775.84;5011269;28;20030;-63
2023/09/15 04:40:52;;;;;;;29.90;21.65;;;;;;;9.97;100.00;101771.13;5012064;28;20044;-63
2023/09/15 04:43:18;;;;;;;26.10;21.77;;;;;;;9.96;100.00;101765.91;5011840;28;20037;-63
2023/09/15 04:45:43;;;;;;;29.58;22.23;;;;;;;9.91;100.00;101763.97;5011578;28;20173;-64
2023/09/15 04:48:09;;;;;;;28.00;21.45;;;;;;;9.90;100.00;101767.03;5011999;28;20061;-63
2023/09/15 04:50:38;;;;;;;28.23;20.98;;;;;;;9.85;100.00;101767.88;5011744;28;20042;-63
2023/09/15 04:53:04;;;;;;;27.88;21.42;;;;;;;9.83;100.00;101765.34;5011748;28;20038;-63
2023/09/15 04:55:30;;;;;;;27.60;21.10;;;;;;;9.80;100.00;101771.47;5011752;28;20026;-63
2023/09/15 04:57:56;;;;;;;27.00;21.45;;;;;;;9.82;100.00;101774.75;5011629;28;20476;-63
2023/09/15 05:00:23;;;;;;;29.20;21.50;;;;;;;9.81;100.00;101781.41;5011593;28;20030;-63
2023/09/15 05:02:49;;;;;;;26.70;20.67;;;;;;;9.81;100.00;101784.19;5011495;28;20137;-63
2023/09/15 05:05:15;;;;;;;27.45;21.55;;;;;;;9.81;100.00;101778.66;5011304;28;20033;-63
2023/09/15 05:07:40;;;;;;;26.55;21.38;;;;;;;9.79;100.00;101780.84;5011551;28;20022;-63
2023/09/15 05:10:07;;;;;;;26.83;20.73;;;;;;;9.80;100.00;101784.44;5011342;28;20026;-63
2023/09/15 05:12:33;;;;;;;29.02;22.55;;;;;;;9.80;100.00;101789.97;5011309;28;20029;-63
2023/09/15 05:14:58;;;;;;;27.70;22.33;;;;;;;9.80;100.00;101782.53;5011184;28;20113;-63
2023/09/15 05:17:23;;;;;;;27.75;21.50;;;;;;;9.76;100.00;101784.16;5011264;28;20169;-63
2023/09/15 05:19:51;;;;;;;28.85;22.30;;;;;;;9.78;100.00;101783.88;5011356;28;20124;-63
2023/09/15 05:22:16;;;;;;;27.13;20.83;;;;;;;9.78;100.00;101783.88;5011320;28;20026;-63
2023/09/15 05:24:42;;;;;;;26.75;20.40;;;;;;;9.81;100.00;101792.47;5011343;28;20022;-63
2023/09/15 05:27:07;;;;;;;28.85;22.05;;;;;;;9.79;100.00;101783.63;5011224;28;20022;-63
2023/09/15 05:29:32;;;;;;;30.75;22.38;;;;;;;9.80;100.00;101790.81;5011262;28;20426;-63
2023/09/15 05:31:57;;;;;;;27.98;21.02;;;;;;;9.82;100.00;101796.88;5011185;28;20099;-63
2023/09/15 05:34:23;;;;;;;28.02;21.48;;;;;;;9.83;100.00;101801.28;5011318;28;20026;-63
2023/09/15 05:36:49;;;;;;;27.08;20.88;;;;;;;9.83;100.00;101794.94;5011172;28;20033;-63
2023/09/15 05:39:15;;;;;;;27.70;20.20;;;;;;;9.88;100.00;101794.09;5011239;28;20046;-63
2023/09/15 05:41:40;;;;;;;27.45;19.85;;;;;;;9.90;100.00;101795.47;5011208;28;20040;-63
2023/09/15 05:44:05;;;;;;;26.27;20.23;;;;;;;9.88;100.00;101789.41;5011408;28;20026;-63
2023/09/15 05:46:31;;;;;;;27.42;20.02;;;;;;;9.89;100.00;101793.81;5010879;28;20057;-63
2023/09/15 05:48:56;;;;;;;26.73;20.33;;;;;;;9.90;100.00;101795.47;5011177;28;20062;-63
2023/09/15 05:51:22;;;;;;;27.20;21.08;;;;;;;9.93;100.00;101796.84;5014606;28;20041;-63
2023/09/15 05:53:47;;;;;;;27.58;20.85;;;;;;;9.95;100.00;101801.03;5015068;28;20035;-63
2023/09/15 05:56:13;;;;;;;28.48;21.17;;;;;;;9.96;100.00;101797.16;5015003;28;20030;-63
2023/09/15 05:58:38;;;;;;;28.27;20.77;;;;;;;10.01;100.00;101798.22;5014993;28;20034;-63
2023/09/15 06:01:06;;;;;;;28.17;21.40;;;;;;;10.06;100.00;101799.06;5014983;28;20033;-63
2023/09/15 06:03:31;;;;;;;27.30;21.25;;;;;;;10.11;100.00;101800.97;5015097;28;20518;-63
2023/09/15 06:05:56;;;;;;;26.92;21.13;;;;;;;10.15;100.00;101794.63;5014846;28;20030;-63
2023/09/15 06:08:22;;;;;;;26.38;21.02;;;;;;;10.22;100.00;101802.63;5014881;28;20032;-63
2023/09/15 06:10:48;;;;;;;28.60;21.45;;;;;;;10.22;100.00;101794.31;5014828;28;20566;-63
2023/09/15 06:13:14;;;;;;;28.92;22.38;;;;;;;10.31;100.00;101794.56;5014889;28;20034;-63
2023/09/15 06:15:39;;;;;;;29.17;22.58;;;;;;;10.35;100.00;101798.44;5014758;28;20112;-63
2023/09/15 06:18:05;;;;;;;28.10;22.25;;;;;;;10.40;100.00;101806.72;5014617;28;20109;-63
2023/09/15 06:20:31;;;;;;;28.23;22.38;;;;;;;10.42;100.00;101801.75;5014785;28;20117;-63
2023/09/15 06:23:05;;;;;;;27.63;22.48;;;;;;;10.48;100.00;101802.56;5014522;28;20041;-63
2023/09/15 06:25:31;;;;;;;28.10;22.45;;;;;;;10.53;100.00;101804.50;5014640;28;20030;-63
2023/09/15 06:27:59;;;;;;;26.83;21.75;;;;;;;10.57;100.00;101800.88;5014481;28;20041;-63
2023/09/15 06:30:24;;;;;;;26.88;21.80;;;;;;;10.63;100.00;101807.22;5014591;28;20109;-63
2023/09/15 06:32:49;;;;;;;29.10;22.10;;;;;;;10.69;100.00;101803.31;5014511;28;20120;-63
2023/09/15 06:35:15;;;;;;;29.30;22.50;;;;;;;10.75;100.00;101799.44;5014340;28;20038;-63
2023/09/15 06:37:40;;;;;;;27.73;20.85;;;;;;;10.81;100.00;101797.47;5012944;28;20029;-63
2023/09/15 06:40:07;;;;;;;28.80;21.40;;;;;;;10.88;100.00;101803.50;5012966;28;20025;-63
2023/09/15 06:42:32;;;;;;;27.30;21.15;;;;;;;10.97;100.00;101795.41;5014352;28;20026;-64
2023/09/15 06:44:58;;;;;;;27.83;20.80;;;;;;;11.05;100.00;101794.00;5014044;28;20045;-63
2023/09/15 06:47:23;;;;;;;27.73;21.48;;;;;;;11.13;100.00;101790.63;5014175;28;20037;-63
2023/09/15 06:49:48;;;;;;;28.90;21.77;;;;;;;11.19;100.00;101786.69;5014098;28;20053;-63
2023/09/15 06:52:14;;;;;;;27.42;20.83;;;;;;;11.24;100.00;101783.09;5014053;28;20075;-63
2023/09/15 06:54:39;;;;;;;27.10;20.70;;;;;;;11.31;100.00;101786.34;5014295;28;20026;-64
2023/09/15 06:57:04;;;;;;;25.45;20.90;;;;;;;11.37;100.00;101776.88;5014191;28;20037;-62
2023/09/15 06:59:30;;;;;;;27.00;21.38;;;;;;;11.46;100.00;101782.66;5013873;28;20132;-63
2023/09/15 07:01:55;;;;;;;27.55;21.38;;;;;;;11.53;100.00;101777.59;5013144;28;20381;-63
2023/09/15 07:04:20;;;;;;;27.15;19.67;;;;;;;11.59;100.00;101780.31;5013996;28;20022;-63
2023/09/15 07:06:46;;;;;;;27.35;19.95;;;;;;;11.65;100.00;101782.75;5013818;28;20171;-63
2023/09/15 07:09:11;;;;;;;26.13;19.95;;;;;;;11.72;100.00;101779.66;5013632;28;20398;-63
2023/09/15 07:11:36;;;;;;;26.92;20.02;;;;;;;11.79;100.00;101777.38;5013601;28;20065;-63
2023/09/15 07:14:02;;;;;;;28.13;20.30;;;;;;;11.90;100.00;101778.13;5013643;28;20458;-63
2023/09/15 07:16:27;;;;;;;24.45;18.95;;;;;;;12.02;100.00;101780.50;5013529;28;20427;-63
2023/09/15 07:18:52;;;;;;;25.85;19.35;;;;;;;12.09;100.00;101777.41;5013466;28;20482;-63
2023/09/15 07:21:18;;;;;;;25.52;19.10;;;;;;;12.17;100.00;101783.09;5011997;28;20069;-62
2023/09/15 07:23:43;;;;;;;25.23;19.40;;;;;;;12.27;100.00;101770.25;5011901;28;20053;-63
2023/09/15 07:26:08;;;;;;;28.33;20.70;;;;;;;12.33;100.00;101771.84;5013415;28;20028;-63
2023/09/15 07:28:34;;;;;;;25.80;19.30;;;;;;;12.43;100.00;101771.72;5013347;28;20030;-63
2023/09/15 07:31:03;;;;;;;24.00;18.25;;;;;;;12.51;100.00;101767.47;5013201;28;20113;-63
2023/09/15 07:33:29;;;;;;;25.90;19.13;;;;;;;12.60;100.00;101767.66;5013140;28;20040;-63
2023/09/15 07:36:02;;;;;;;23.05;18.25;;;;;;;12.68;100.00;101763.34;5013219;28;20029;-64
2023/09/15 07:38:29;;;;;;;24.75;19.27;;;;;;;12.77;100.00;101762.41;5013349;28;20080;-63
2023/09/15 07:40:54;;;;;;;24.25;18.55;;;;;;;12.83;100.00;101749.28;5013123;28;20342;-63
2023/09/15 07:43:20;;;;;;;26.63;18.17;;;;;;;12.90;100.00;101758.06;5013290;28;20030;-63
2023/09/15 07:45:46;;;;;;;24.25;18.77;;;;;;;13.03;100.00;101752.91;5012885;28;20046;-63
2023/09/15 07:48:12;;;;;;;24.25;18.80;;;;;;;13.11;100.00;101755.00;5011498;28;20477;-63
2023/09/15 07:50:37;;;;;;;24.50;18.88;;;;;;;13.17;100.00;101758.50;5012872;28;20032;-63
2023/09/15 07:53:02;;;;;;;25.13;18.30;;;;;;;13.25;100.00;101749.50;5011553;28;20113;-64
2023/09/15 07:55:28;;;;;;;25.13;17.92;;;;;;;13.36;100.00;101753.75;5012853;28;20132;-64
2023/09/15 07:57:53;;;;;;;24.38;18.02;;;;;;;13.45;100.00;101755.88;5012640;28;20056;-64
2023/09/15 08:00:19;;;;;;;24.33;17.63;;;;;;;13.52;100.00;101759.91;5012872;28;20065;-64
2023/09/15 08:02:44;;;;;;;25.00;17.88;;;;;;;13.59;100.00;101753.94;5012719;28;20029;-64
2023/09/15 08:05:09;;;;;;;23.83;18.10;;;;;;;13.63;100.00;101749.44;5012815;28;20040;-64
2023/09/15 08:07:35;;;;;;;26.15;18.60;;;;;;;13.73;100.00;101751.22;5012941;28;20029;-63
2023/09/15 08:10:01;;;;;;;22.65;17.98;;;;;;;13.78;100.00;101753.91;5012711;28;20038;-64
2023/09/15 08:12:27;;;;;;;25.65;18.25;;;;;;;13.86;100.00;101752.38;5012584;28;20035;-63
2023/09/15 08:14:52;;;;;;;23.77;17.90;;;;;;;13.94;100.00;101739.72;5011608;28;20557;-63
2023/09/15 08:17:17;;;;;;;23.65;18.52;;;;;;;14.01;100.00;101752.09;5012551;28;20137;-64
2023/09/15 08:19:43;;;;;;;24.40;19.67;;;;;;;14.10;100.00;101751.38;5011010;28;20458;-64
2023/09/15 08:22:08;;;;;;;24.17;18.00;;;;;;;14.18;100.00;101751.47;5012473;28;20061;-64
2023/09/15 08:24:33;;;;;;;21.77;16.92;;;;;;;14.26;100.00;101744.38;5012439;28;20054;-64
2023/09/15 08:26:59;;;;;;;23.50;17.48;;;;;;;14.34;100.00;101745.59;5012313;28;20063;-64
2023/09/15 08:29:24;;;;;;;24.23;17.63;;;;;;;14.43;100.00;101752.09;5012332;28;20036;-64
2023/09/15 08:31:50;;;;;;;23.73;18.00;;;;;;;14.49;100.00;101742.50;5012325;28;20048;-64
2023/09/15 08:34:15;;;;;;;24.50;17.77;;;;;;;14.64;100.00;101751.66;5012339;28;20421;-64
2023/09/15 08:36:41;;;;;;;23.20;17.70;;;;;;;14.77;100.00;101753.63;5012157;28;20076;-64
2023/09/15 08:39:07;;;;;;;24.73;18.75;;;;;;;14.81;100.00;101751.88;5012340;28;20030;-64
2023/09/15 08:41:40;;;;;;;24.60;18.02;;;;;;;14.88;100.00;101743.06;5012048;28;20547;-64
2023/09/15 08:44:09;;;;;;;22.60;17.70;;;;;;;14.97;100.00;101751.50;5012152;28;20042;-64
2023/09/15 08:46:37;;;;;;;25.33;17.98;;;;;;;15.10;100.00;101747.88;5011764;28;20046;-64
2023/09/15 08:49:05;;;;;;;24.45;17.75;;;;;;;15.21;100.00;101751.22;5011913;28;20037;-64
2023/09/15 08:51:31;;;;;;;24.88;17.45;;;;;;;15.34;100.00;101749.50;5012140;28;20156;-64
2023/09/15 08:53:56;;;;;;;24.27;17.75;;;;;;;15.38;100.00;101747.75;5011927;28;20426;-64
2023/09/15 08:56:26;;;;;;;24.17;17.85;;;;;;;15.49;100.00;101744.72;5011846;28;20026;-64
2023/09/15 08:58:52;;;;;;;23.52;17.30;;;;;;;15.56;100.00;101745.06;5011787;28;20038;-64
2023/09/15 09:01:18;;;;;;;22.48;16.98;;;;;;;15.65;100.00;101739.53;5010299;28;20022;-64
2023/09/15 09:03:43;;;;;;;23.75;17.38;;;;;;;15.74;100.00;101734.81;5011610;28;20030;-64
2023/09/15 09:06:10;;;;;;;25.25;17.42;;;;;;;15.90;100.00;101735.28;5011730;28;20048;-64
2023/09/15 09:08:41;;;;;;;24.00;17.42;;;;;;;16.04;100.00;101735.16;5011741;28;20032;-64
2023/09/15 09:11:08;;;;;;;23.63;16.17;;;;;;;16.14;100.00;101734.06;5011573;28;20033;-66
2023/09/15 09:13:33;;;;;;;22.50;16.48;;;;;;;16.24;100.00;101735.75;5011510;28;20397;-63
2023/09/15 09:15:59;;;;;;;22.85;16.88;;;;;;;16.37;100.00;101738.41;5011450;28;20037;-64
2023/09/15 09:18:25;;;;;;;22.88;18.15;;;;;;;16.49;100.00;101728.59;5011411;28;20037;-64
2023/09/15 09:20:51;;;;;;;21.75;15.93;;;;;;;16.55;99.82;101724.47;5011514;28;20037;-64
2023/09/15 09:23:20;;;;;;;22.42;15.88;;;;;;;16.67;99.68;101729.47;5011494;28;20030;-64
2023/09/15 09:25:46;;;;;;;23.15;15.98;;;;;;;16.73;97.55;101727.28;5011201;28;20106;-64
2023/09/15 09:28:12;;;;;;;21.45;15.85;;;;;;;16.80;98.54;101730.47;5011338;28;20552;-64
2023/09/15 09:30:38;;;;;;;21.33;15.85;;;;;;;16.85;96.79;101727.47;5011471;28;20034;-64
2023/09/15 09:33:04;;;;;;;23.92;16.08;;;;;;;16.95;97.79;101723.59;5011481;28;20030;-64
2023/09/15 09:35:30;;;;;;;22.02;15.52;;;;;;;17.05;97.29;101728.00;5011237;28;20034;-63
2023/09/15 09:37:58;;;;;;;22.60;16.48;;;;;;;17.11;96.63;101716.34;5011176;28;20021;-64
2023/09/15 09:40:24;;;;;;;21.85;16.30;;;;;;;17.21;97.46;101709.59;5011141;28;20482;-64
2023/09/15 09:42:50;;;;;;;21.80;16.17;;;;;;;17.31;96.43;101714.03;5011226;28;20467;-64
2023/09/15 09:45:16;;;;;;;26.10;16.10;;;;;;;17.39;95.84;101704.78;5010811;28;20129;-64
2023/09/15 09:47:45;;;;;;;30.25;16.60;;;;;;;17.48;94.86;101715.94;5011372;28;20141;-64
2023/09/15 09:50:11;;;;;;;22.25;15.80;;;;;;;17.59;95.21;101711.66;5011261;28;20033;-63
2023/09/15 09:52:37;;;;;;;21.42;15.82;;;;;;;17.65;94.33;101711.50;5011245;28;20030;-64
2023/09/15 09:55:10;;;;;;;22.52;15.77;;;;;;;17.70;93.04;101709.34;5011152;28;20493;-64
2023/09/15 09:57:39;;;;;;;21.90;15.75;;;;;;;17.78;93.62;101707.63;5011194;28;20054;-64
2023/09/15 10:00:09;;;;;;;22.67;16.48;;;;;;;17.86;93.31;101703.19;5011153;28;20563;-64
2023/09/15 10:02:36;;;;;;;24.55;16.85;;;;;;;18.00;93.34;101711.38;5011195;28;20064;-64
2023/09/15 10:05:01;;;;;;;23.45;16.15;;;;;;;18.08;93.94;101705.75;5011289;28;20054;-64
2023/09/15 10:07:27;;;;;;;20.85;15.30;;;;;;;18.20;93.03;101710.63;5009853;28;20060;-64
2023/09/15 10:09:54;;;;;;;21.60;16.35;;;;;;;18.31;91.26;101710.25;5011175;28;20034;-64
2023/09/15 10:12:20;;;;;;;22.52;15.90;;;;;;;18.37;90.90;101706.09;5010972;28;20073;-64
2023/09/15 10:14:46;;;;;;;24.08;16.13;;;;;;;18.45;89.99;101698.78;5011053;28;20038;-64
2023/09/15 10:17:12;;;;;;;24.08;15.23;;;;;;;18.48;89.27;101695.28;5010941;28;20084;-63
2023/09/15 10:19:39;;;;;;;22.48;16.48;;;;;;;18.50;90.12;101691.00;5011523;28;20034;-64
2023/09/15 10:22:05;;;;;;;21.20;15.93;;;;;;;18.60;90.73;101681.38;5010814;28;20026;-64
2023/09/15 10:24:32;;;;;;;22.70;15.23;;;;;;;18.73;90.06;101670.25;5010822;28;20028;-64
2023/09/15 10:26:57;;;;;;;21.90;14.98;;;;;;;18.82;88.04;101673.78;5009325;28;20541;-64
2023/09/15 10:29:29;;;;;;;22.40;15.55;;;;;;;18.94;88.94;101675.84;5010894;28;20034;-64
2023/09/15 10:31:58;;;;;;;21.85;16.13;;;;;;;18.88;84.76;101666.81;5011046;28;20073;-63
2023/09/15 10:34:25;;;;;;;23.85;15.68;;;;;;;18.96;86.15;101674.34;5010810;28;20030;-63
2023/09/15 10:36:50;;;;;;;20.30;14.65;;;;;;;18.99;86.15;101665.25;5011557;28;20042;-63
2023/09/15 10:39:17;;;;;;;20.75;14.43;;;;;;;19.14;87.42;101677.81;5014437;28;20026;-63
2023/09/15 10:41:43;;;;;;;21.05;13.80;;;;;;;19.27;83.98;101666.66;5014069;28;20025;-63
2023/09/15 10:44:09;;;;;;;20.92;13.52;;;;;;;19.33;83.20;101662.44;5012823;28;20022;-64
2023/09/15 10:46:39;;;;;;;20.20;13.80;;;;;;;19.37;81.56;101663.38;5014242;28;20544;-64
2023/09/15 10:49:18;;;;;;;21.45;14.70;;;;;;;19.40;82.71;101654.28;5014177;28;20033;-63
2023/09/15 10:51:55;;;;;;;21.75;14.95;;;;;;;19.38;81.87;101653.00;5012799;28;20129;-63
2023/09/15 10:54:21;;;;;;;21.05;14.43;;;;;;;19.51;82.43;101662.25;5014020;28;20540;-63
2023/09/15 10:56:47;;;;;;;21.63;14.43;;;;;;;19.52;81.45;101652.66;5013873;28;20030;-65
2023/09/15 10:59:16;;;;;;;21.55;15.05;;;;;;;19.59;81.33;101650.09;5014011;28;20079;-64
2023/09/15 11:01:45;;;;;;;21.30;14.60;;;;;;;19.68;81.00;101648.00;5013923;28;20030;-65